Lawson Army Air Field (Fort Benning) Fort Benning(Columbus) US
ICAO: KLSF
IATA: LSF
Category: Medium
Scheduled Services: No

Elevation: 232 ft
TransAlt. 18000 ft.

Airport Communications:
ATLANTA APP/DEP:125.5
ATIS:134.375
CLNC DEL:121.7
GND:121.05
PMSV METRO:34.32
PTD/BASE OPS:134.1
TWR:119.05

KLSF Zoom In..

Runways:

(A) RW 15 length 10004 ft width 150 ft
---- / hdg 147

(B) RW 33 length 10004 ft width 150 ft
ILS 110.70 / hdg 327

Location; KLSF
Day. 24 / Time. 01.56 Zulu
* Altimeter: 30.15
* Temperature: 04° c. 39.2°f.
* Wind from: 000° Speed 00 kn.
Dewpoint: 01° c.
Visibility: 10 Statute Miles.
Clouds: Clear (automated report).

KLSF 240156Z AUTO 00000KT 10SM CLR 04/01 A3015 RMK AO2 SLP216 T00400007


Wind - Calm.

YouTube Music Video
 
jpsmedia.com for Web Design  worldairports.se 2018   terms of use